sensor_id;sensor_type;location;lat;lon;timestamp;pressure;altitude;pressure_sealevel;temperature;humidity
73974;BME280;62336;-26.094;27.994;2022-12-07T03:55:36;84922.14;;;25.69;31.68
73974;BME280;62336;-26.094;27.994;2022-12-07T03:58:01;84920.76;;;25.62;32.23
73974;BME280;62336;-26.094;27.994;2022-12-07T04:00:24;84922.35;;;25.13;33.35
73974;BME280;62336;-26.094;27.994;2022-12-07T04:02:52;84931.44;;;26.49;31.75
73974;BME280;62336;-26.094;27.994;2022-12-07T04:05:16;84930.03;;;27.01;30.92
73974;BME280;62336;-26.094;27.994;2022-12-07T04:07:41;84934.03;;;27.37;29.43
73974;BME280;62336;-26.094;27.994;2022-12-07T04:10:08;84931.78;;;27.30;30.51
73974;BME280;62336;-26.094;27.994;2022-12-07T04:12:33;84932.84;;;26.41;30.60
73974;BME280;62336;-26.094;27.994;2022-12-07T04:14:59;84941.57;;;26.40;31.59
73974;BME280;62336;-26.094;27.994;2022-12-07T04:17:25;84936.90;;;25.41;32.44
73974;BME280;62336;-26.094;27.994;2022-12-07T04:19:51;84939.63;;;25.36;31.90
73974;BME280;62336;-26.094;27.994;2022-12-07T04:22:17;84945.97;;;25.30;32.68
73974;BME280;62336;-26.094;27.994;2022-12-07T04:24:42;84945.17;;;25.49;32.38
73974;BME280;62336;-26.094;27.994;2022-12-07T04:27:09;84946.95;;;25.48;32.38
73974;BME280;62336;-26.094;27.994;2022-12-07T04:29:34;84953.35;;;25.24;32.86
73974;BME280;62336;-26.094;27.994;2022-12-07T04:32:00;84957.48;;;25.22;33.35
73974;BME280;62336;-26.094;27.994;2022-12-07T04:34:26;84957.88;;;25.34;33.14
73974;BME280;62336;-26.094;27.994;2022-12-07T04:36:52;84960.63;;;25.05;33.44
73974;BME280;62336;-26.094;27.994;2022-12-07T04:39:21;84957.82;;;24.98;34.79
73974;BME280;62336;-26.094;27.994;2022-12-07T04:41:43;84956.82;;;26.04;33.13
73974;BME280;62336;-26.094;27.994;2022-12-07T04:44:10;84961.40;;;26.77;31.93
73974;BME280;62336;-26.094;27.994;2022-12-07T04:46:35;84966.66;;;26.83;31.08
73974;BME280;62336;-26.094;27.994;2022-12-07T04:49:01;84969.93;;;26.62;31.08
73974;BME280;62336;-26.094;27.994;2022-12-07T04:51:28;84970.03;;;26.38;31.20
73974;BME280;62336;-26.094;27.994;2022-12-07T04:53:54;84972.14;;;26.42;30.96
73974;BME280;62336;-26.094;27.994;2022-12-07T04:56:18;84965.06;;;25.82;32.20
73974;BME280;62336;-26.094;27.994;2022-12-07T04:58:46;84973.27;;;25.86;31.79
73974;BME280;62336;-26.094;27.994;2022-12-07T05:01:11;84977.95;;;26.21;32.05
73974;BME280;62336;-26.094;27.994;2022-12-07T05:03:36;84983.85;;;25.57;32.42
73974;BME280;62336;-26.094;27.994;2022-12-07T05:06:01;84988.66;;;25.56;32.40
73974;BME280;62336;-26.094;27.994;2022-12-07T05:08:27;84989.70;;;25.91;32.59
73974;BME280;62336;-26.094;27.994;2022-12-07T05:10:53;84988.84;;;25.72;32.05
73974;BME280;62336;-26.094;27.994;2022-12-07T05:13:19;84989.28;;;25.88;32.34
73974;BME280;62336;-26.094;27.994;2022-12-07T05:15:46;84990.80;;;26.05;32.83
73974;BME280;62336;-26.094;27.994;2022-12-07T05:18:11;84998.96;;;26.86;32.06
73974;BME280;62336;-26.094;27.994;2022-12-07T05:20:36;84999.53;;;27.05;30.77
73974;BME280;62336;-26.094;27.994;2022-12-07T05:23:02;85001.04;;;27.32;30.05
73974;BME280;62336;-26.094;27.994;2022-12-07T05:25:28;85003.28;;;27.29;30.28
73974;BME280;62336;-26.094;27.994;2022-12-07T05:27:55;85007.22;;;26.74;30.89
73974;BME280;62336;-26.094;27.994;2022-12-07T05:30:20;85007.97;;;26.79;31.23
73974;BME280;62336;-26.094;27.994;2022-12-07T05:32:46;85007.48;;;26.81;30.60
73974;BME280;62336;-26.094;27.994;2022-12-07T05:35:11;85009.66;;;26.42;31.06
73974;BME280;62336;-26.094;27.994;2022-12-07T05:37:37;85010.74;;;26.29;31.82
73974;BME280;62336;-26.094;27.994;2022-12-07T05:40:04;85013.96;;;26.21;31.19
73974;BME280;62336;-26.094;27.994;2022-12-07T05:42:29;85012.42;;;26.33;30.89
73974;BME280;62336;-26.094;27.994;2022-12-07T05:44:55;85012.01;;;25.85;31.78
73974;BME280;62336;-26.094;27.994;2022-12-07T05:47:21;85012.61;;;26.18;32.02
73974;BME280;62336;-26.094;27.994;2022-12-07T05:49:45;85011.27;;;26.05;32.27
73974;BME280;62336;-26.094;27.994;2022-12-07T05:52:11;85011.00;;;25.74;31.93
73974;BME280;62336;-26.094;27.994;2022-12-07T05:54:37;85008.76;;;26.06;32.54
73974;BME280;62336;-26.094;27.994;2022-12-07T05:57:03;85014.53;;;26.74;31.31
73974;BME280;62336;-26.094;27.994;2022-12-07T05:59:28;85012.71;;;27.83;30.58
73974;BME280;62336;-26.094;27.994;2022-12-07T06:01:57;85010.06;;;27.66;29.39
73974;BME280;62336;-26.094;27.994;2022-12-07T07:16:40;84990.95;;;14.92;70.96
73974;BME280;62336;-26.094;27.994;2022-12-07T07:19:05;84983.99;;;19.06;52.45
73974;BME280;62336;-26.094;27.994;2022-12-07T07:21:37;84987.31;;;21.94;45.38
73974;BME280;62336;-26.094;27.994;2022-12-07T07:23:58;84977.81;;;24.65;40.34
73974;BME280;62336;-26.094;27.994;2022-12-07T07:26:23;84973.08;;;26.09;35.67
73974;BME280;62336;-26.094;27.994;2022-12-07T07:28:49;84972.58;;;27.22;32.01
73974;BME280;62336;-26.094;27.994;2022-12-07T07:31:15;84974.83;;;27.69;29.70
73974;BME280;62336;-26.094;27.994;2022-12-07T07:33:40;84971.55;;;28.99;28.89
73974;BME280;62336;-26.094;27.994;2022-12-07T07:36:07;84965.65;;;28.58;28.27
73974;BME280;62336;-26.094;27.994;2022-12-07T07:38:32;84972.30;;;29.00;27.66
73974;BME280;62336;-26.094;27.994;2022-12-07T07:40:57;84972.45;;;29.15;27.43
73974;BME280;62336;-26.094;27.994;2022-12-07T07:43:24;84970.34;;;29.39;27.51
73974;BME280;62336;-26.094;27.994;2022-12-07T07:45:49;84970.77;;;29.77;27.08
73974;BME280;62336;-26.094;27.994;2022-12-07T07:48:15;84971.86;;;29.61;26.76
73974;BME280;62336;-26.094;27.994;2022-12-07T07:50:41;84972.07;;;29.40;26.87
73974;BME280;62336;-26.094;27.994;2022-12-07T07:53:07;84964.52;;;29.42;28.04
73974;BME280;62336;-26.094;27.994;2022-12-07T07:55:33;84954.62;;;30.43;25.70
73974;BME280;62336;-26.094;27.994;2022-12-07T07:57:59;84952.45;;;30.41;25.54
73974;BME280;62336;-26.094;27.994;2022-12-07T08:00:25;84954.53;;;30.57;25.74
73974;BME280;62336;-26.094;27.994;2022-12-07T08:02:50;84957.14;;;30.71;25.01
73974;BME280;62336;-26.094;27.994;2022-12-07T08:05:36;84956.14;;;28.47;25.56
73974;BME280;62336;-26.094;27.994;2022-12-07T08:07:55;84955.91;;;31.46;24.14
73974;BME280;62336;-26.094;27.994;2022-12-07T08:10:21;84955.07;;;30.97;23.78
73974;BME280;62336;-26.094;27.994;2022-12-07T08:12:47;84956.42;;;30.93;24.21
73974;BME280;62336;-26.094;27.994;2022-12-07T08:15:13;84951.38;;;31.22;24.13
73974;BME280;62336;-26.094;27.994;2022-12-07T08:17:39;84952.35;;;31.01;24.43
73974;BME280;62336;-26.094;27.994;2022-12-07T08:20:07;84953.04;;;30.90;24.51
73974;BME280;62336;-26.094;27.994;2022-12-07T08:22:30;84950.11;;;31.16;24.92
73974;BME280;62336;-26.094;27.994;2022-12-07T08:24:58;84953.79;;;31.47;24.14
73974;BME280;62336;-26.094;27.994;2022-12-07T08:27:23;84956.82;;;32.24;22.40
73974;BME280;62336;-26.094;27.994;2022-12-07T08:29:48;84951.80;;;32.88;22.75
73974;BME280;62336;-26.094;27.994;2022-12-07T08:32:14;84946.55;;;32.50;23.30
73974;BME280;62336;-26.094;27.994;2022-12-07T08:34:40;84941.67;;;32.23;21.66
73974;BME280;62336;-26.094;27.994;2022-12-07T08:37:06;84940.91;;;31.89;22.23
73974;BME280;62336;-26.094;27.994;2022-12-07T08:39:31;84943.47;;;33.03;22.14
73974;BME280;62336;-26.094;27.994;2022-12-07T08:41:58;84949.56;;;33.29;21.88
73974;BME280;62336;-26.094;27.994;2022-12-07T08:44:23;84948.39;;;32.41;21.87
73974;BME280;62336;-26.094;27.994;2022-12-07T08:46:51;84947.26;;;32.17;22.35
73974;BME280;62336;-26.094;27.994;2022-12-07T08:49:18;84950.25;;;31.99;22.38
73974;BME280;62336;-26.094;27.994;2022-12-07T08:51:41;84946.88;;;32.07;23.07
73974;BME280;62336;-26.094;27.994;2022-12-07T08:54:09;84943.56;;;32.33;22.73
73974;BME280;62336;-26.094;27.994;2022-12-07T08:56:33;84943.31;;;32.06;22.83
73974;BME280;62336;-26.094;27.994;2022-12-07T08:58:58;84945.33;;;32.77;22.49
73974;BME280;62336;-26.094;27.994;2022-12-07T09:01:26;84941.28;;;33.43;22.09
73974;BME280;62336;-26.094;27.994;2022-12-07T09:03:50;84939.18;;;33.16;21.53
73974;BME280;62336;-26.094;27.994;2022-12-07T09:06:16;84935.26;;;32.78;21.56
73974;BME280;62336;-26.094;27.994;2022-12-07T09:08:45;84930.50;;;32.37;22.22
73974;BME280;62336;-26.094;27.994;2022-12-07T09:11:07;84926.32;;;32.16;21.79
73974;BME280;62336;-26.094;27.994;2022-12-07T09:13:33;84930.91;;;32.21;22.32
73974;BME280;62336;-26.094;27.994;2022-12-07T09:15:59;84935.18;;;32.20;22.78
73974;BME280;62336;-26.094;27.994;2022-12-07T09:18:25;84929.15;;;31.54;25.23
73974;BME280;62336;-26.094;27.994;2022-12-07T09:20:50;84927.11;;;31.82;23.39
73974;BME280;62336;-26.094;27.994;2022-12-07T09:23:16;84929.91;;;32.32;23.00
73974;BME280;62336;-26.094;27.994;2022-12-07T09:25:43;84927.17;;;32.17;21.70
73974;BME280;62336;-26.094;27.994;2022-12-07T09:28:08;84921.92;;;32.00;21.80
73974;BME280;62336;-26.094;27.994;2022-12-07T09:30:34;84929.02;;;32.06;22.73
73974;BME280;62336;-26.094;27.994;2022-12-07T09:33:00;84924.59;;;32.53;22.36
73974;BME280;62336;-26.094;27.994;2022-12-07T09:35:26;84928.61;;;32.96;21.57
73974;BME280;62336;-26.094;27.994;2022-12-07T09:37:52;84924.93;;;33.43;21.43
73974;BME280;62336;-26.094;27.994;2022-12-07T09:40:19;84932.39;;;33.34;21.62
73974;BME280;62336;-26.094;27.994;2022-12-07T09:42:47;84930.65;;;32.92;21.47
73974;BME280;62336;-26.094;27.994;2022-12-07T09:45:14;84931.04;;;32.80;21.52
73974;BME280;62336;-26.094;27.994;2022-12-07T09:47:35;84931.61;;;32.76;21.58
73974;BME280;62336;-26.094;27.994;2022-12-07T09:50:05;84929.92;;;31.85;22.04
73974;BME280;62336;-26.094;27.994;2022-12-07T09:52:28;84926.67;;;32.63;22.46
73974;BME280;62336;-26.094;27.994;2022-12-07T09:54:53;84923.89;;;32.92;22.17
73974;BME280;62336;-26.094;27.994;2022-12-07T09:57:20;84910.84;;;32.86;22.22
73974;BME280;62336;-26.094;27.994;2022-12-07T09:59:44;84896.41;;;32.44;23.36
73974;BME280;62336;-26.094;27.994;2022-12-07T10:02:22;84895.47;;;31.99;24.06
73974;BME280;62336;-26.094;27.994;2022-12-07T10:04:38;84903.15;;;32.75;22.22
73974;BME280;62336;-26.094;27.994;2022-12-07T10:07:01;84904.25;;;32.97;22.80
73974;BME280;62336;-26.094;27.994;2022-12-07T10:09:29;84897.39;;;33.31;22.36
73974;BME280;62336;-26.094;27.994;2022-12-07T10:12:03;84900.11;;;33.73;22.43
73974;BME280;62336;-26.094;27.994;2022-12-07T10:14:19;84899.66;;;33.94;21.25
73974;BME280;62336;-26.094;27.994;2022-12-07T10:16:45;84907.48;;;33.28;20.45
73974;BME280;62336;-26.094;27.994;2022-12-07T10:19:26;84902.72;;;32.99;22.26
73974;BME280;62336;-26.094;27.994;2022-12-07T10:21:37;84891.41;;;33.54;20.71
73974;BME280;62336;-26.094;27.994;2022-12-07T10:24:05;84889.28;;;33.51;21.24
73974;BME280;62336;-26.094;27.994;2022-12-07T10:26:31;84891.66;;;33.52;22.25
73974;BME280;62336;-26.094;27.994;2022-12-07T10:28:54;84881.14;;;33.80;20.07
73974;BME280;62336;-26.094;27.994;2022-12-07T10:31:23;84887.77;;;33.13;20.57
73974;BME280;62336;-26.094;27.994;2022-12-07T10:33:51;84878.48;;;33.51;21.15
73974;BME280;62336;-26.094;27.994;2022-12-07T10:36:21;84883.96;;;32.50;21.51
73974;BME280;62336;-26.094;27.994;2022-12-07T10:38:45;84881.86;;;33.49;20.83
73974;BME280;62336;-26.094;27.994;2022-12-07T10:41:06;84878.92;;;33.38;21.09
73974;BME280;62336;-26.094;27.994;2022-12-07T10:43:30;84876.55;;;33.58;19.99
73974;BME280;62336;-26.094;27.994;2022-12-07T10:48:27;84884.45;;;34.02;20.94
73974;BME280;62336;-26.094;27.994;2022-12-07T10:50:56;84887.39;;;34.50;20.66
73974;BME280;62336;-26.094;27.994;2022-12-07T10:53:30;84887.08;;;34.41;20.55
73974;BME280;62336;-26.094;27.994;2022-12-07T10:55:50;84883.40;;;34.84;20.59
73974;BME280;62336;-26.094;27.994;2022-12-07T10:58:16;84900.00;;;34.69;20.47
73974;BME280;62336;-26.094;27.994;2022-12-07T11:00:32;84896.04;;;34.38;20.45
73974;BME280;62336;-26.094;27.994;2022-12-07T11:03:06;84886.79;;;34.26;20.49
73974;BME280;62336;-26.094;27.994;2022-12-07T11:05:26;84894.55;;;34.17;20.92
73974;BME280;62336;-26.094;27.994;2022-12-07T11:07:54;84900.86;;;32.74;22.01
73974;BME280;62336;-26.094;27.994;2022-12-07T11:10:16;84896.18;;;33.09;21.92
73974;BME280;62336;-26.094;27.994;2022-12-07T11:12:49;84901.29;;;32.59;23.08
73974;BME280;62336;-26.094;27.994;2022-12-07T11:15:08;84898.25;;;33.18;21.53
73974;BME280;62336;-26.094;27.994;2022-12-07T11:17:36;84900.40;;;32.28;21.96
73974;BME280;62336;-26.094;27.994;2022-12-07T11:20:02;84902.22;;;32.31;21.52
73974;BME280;62336;-26.094;27.994;2022-12-07T11:22:25;84910.44;;;32.74;22.30
73974;BME280;62336;-26.094;27.994;2022-12-07T11:24:53;84907.04;;;33.15;21.03
73974;BME280;62336;-26.094;27.994;2022-12-07T11:27:22;84902.59;;;32.30;21.98
73974;BME280;62336;-26.094;27.994;2022-12-07T11:29:55;84902.77;;;32.57;21.72
73974;BME280;62336;-26.094;27.994;2022-12-07T11:32:11;84912.26;;;32.87;21.23
73974;BME280;62336;-26.094;27.994;2022-12-07T11:34:37;84912.71;;;32.32;21.01
73974;BME280;62336;-26.094;27.994;2022-12-07T11:36:56;84915.65;;;30.36;21.71
73974;BME280;62336;-26.094;27.994;2022-12-07T11:39:25;84915.51;;;29.77;23.73
73974;BME280;62336;-26.094;27.994;2022-12-07T11:41:50;84910.68;;;30.79;22.97
73974;BME280;62336;-26.094;27.994;2022-12-07T11:44:23;84913.41;;;29.50;23.43
73974;BME280;62336;-26.094;27.994;2022-12-07T11:46:46;84914.63;;;27.71;24.98
73974;BME280;62336;-26.094;27.994;2022-12-07T11:49:10;84905.25;;;29.56;24.10
73974;BME280;62336;-26.094;27.994;2022-12-07T11:51:31;84911.78;;;27.71;27.39
73974;BME280;62336;-26.094;27.994;2022-12-07T11:53:57;84907.46;;;29.88;24.57
73974;BME280;62336;-26.094;27.994;2022-12-07T11:56:22;84918.22;;;30.88;25.16
73974;BME280;62336;-26.094;27.994;2022-12-07T11:58:50;84916.77;;;28.25;24.44
73974;BME280;62336;-26.094;27.994;2022-12-07T12:01:24;84918.42;;;29.72;23.87
73974;BME280;62336;-26.094;27.994;2022-12-07T12:03:42;84927.97;;;30.02;24.00
73974;BME280;62336;-26.094;27.994;2022-12-07T12:06:03;84932.21;;;30.93;23.15
73974;BME280;62336;-26.094;27.994;2022-12-07T12:08:31;84944.00;;;29.72;23.38
73974;BME280;62336;-26.094;27.994;2022-12-07T12:11:00;84953.52;;;30.05;24.74
73974;BME280;62336;-26.094;27.994;2022-12-07T12:13:35;84958.45;;;30.30;24.67
73974;BME280;62336;-26.094;27.994;2022-12-07T12:16:01;84952.18;;;29.88;25.38
73974;BME280;62336;-26.094;27.994;2022-12-07T12:18:24;84961.03;;;30.77;22.58
73974;BME280;62336;-26.094;27.994;2022-12-07T12:20:43;84959.40;;;28.60;24.60
73974;BME280;62336;-26.094;27.994;2022-12-07T12:23:10;84953.82;;;30.99;24.00
73974;BME280;62336;-26.094;27.994;2022-12-07T12:25:36;84957.32;;;30.47;22.89
73974;BME280;62336;-26.094;27.994;2022-12-07T12:27:58;84954.31;;;29.23;23.31
73974;BME280;62336;-26.094;27.994;2022-12-07T12:30:34;84952.51;;;30.99;23.14
73974;BME280;62336;-26.094;27.994;2022-12-07T12:32:47;84952.42;;;28.39;24.71
73974;BME280;62336;-26.094;27.994;2022-12-07T12:35:28;84946.70;;;28.90;24.51
73974;BME280;62336;-26.094;27.994;2022-12-07T12:37:43;84946.88;;;28.87;24.46
73974;BME280;62336;-26.094;27.994;2022-12-07T12:57:09;84953.38;;;25.74;24.83
73974;BME280;62336;-26.094;27.994;2022-12-07T12:59:33;84956.51;;;28.04;24.49
73974;BME280;62336;-26.094;27.994;2022-12-07T13:02:09;84954.02;;;28.19;22.89
73974;BME280;62336;-26.094;27.994;2022-12-07T13:04:38;84968.11;;;27.60;23.78
73974;BME280;62336;-26.094;27.994;2022-12-07T13:06:49;84953.77;;;27.83;23.21
73974;BME280;62336;-26.094;27.994;2022-12-07T13:09:21;84948.09;;;27.94;23.50
73974;BME280;62336;-26.094;27.994;2022-12-07T13:11:43;84934.55;;;28.19;23.10
73974;BME280;62336;-26.094;27.994;2022-12-07T13:16:39;84951.74;;;26.61;25.44
73974;BME280;62336;-26.094;27.994;2022-12-07T13:18:58;84940.86;;;24.89;26.50
73974;BME280;62336;-26.094;27.994;2022-12-07T13:21:41;84951.58;;;25.33;26.32
73974;BME280;62336;-26.094;27.994;2022-12-07T13:23:57;84951.71;;;26.54;25.10
73974;BME280;62336;-26.094;27.994;2022-12-07T13:26:17;84948.40;;;27.23;24.29
73974;BME280;62336;-26.094;27.994;2022-12-07T13:28:44;84943.61;;;27.22;24.22
73974;BME280;62336;-26.094;27.994;2022-12-07T13:31:16;84933.40;;;27.49;23.79
73974;BME280;62336;-26.094;27.994;2022-12-07T13:33:35;84929.83;;;27.97;24.32
73974;BME280;62336;-26.094;27.994;2022-12-07T13:35:58;84916.65;;;27.90;23.71
73974;BME280;62336;-26.094;27.994;2022-12-07T13:38:28;84917.26;;;26.98;25.24
73974;BME280;62336;-26.094;27.994;2022-12-07T13:41:02;84912.22;;;27.26;23.90
73974;BME280;62336;-26.094;27.994;2022-12-07T13:43:17;84898.07;;;27.51;23.99
73974;BME280;62336;-26.094;27.994;2022-12-07T13:45:42;84893.30;;;27.08;24.11
73974;BME280;62336;-26.094;27.994;2022-12-07T13:48:13;84880.13;;;28.64;22.79
73974;BME280;62336;-26.094;27.994;2022-12-07T13:50:33;84887.28;;;28.03;23.77
73974;BME280;62336;-26.094;27.994;2022-12-07T13:53:01;84878.92;;;27.83;22.60
73974;BME280;62336;-26.094;27.994;2022-12-07T13:55:25;84873.67;;;27.73;22.14
73974;BME280;62336;-26.094;27.994;2022-12-07T13:57:52;84870.71;;;26.97;23.37
73974;BME280;62336;-26.094;27.994;2022-12-07T14:00:18;84862.37;;;26.65;24.04
73974;BME280;62336;-26.094;27.994;2022-12-07T14:05:09;84866.20;;;26.05;24.72
73974;BME280;62336;-26.094;27.994;2022-12-07T14:07:34;84851.68;;;26.60;24.85
73974;BME280;62336;-26.094;27.994;2022-12-07T14:10:00;84859.54;;;26.80;24.31
73974;BME280;62336;-26.094;27.994;2022-12-07T14:12:37;84855.71;;;24.58;27.83
73974;BME280;62336;-26.094;27.994;2022-12-07T14:15:00;84858.04;;;26.07;27.79
73974;BME280;62336;-26.094;27.994;2022-12-07T14:17:26;84853.28;;;26.89;25.64
73974;BME280;62336;-26.094;27.994;2022-12-07T14:19:52;84849.53;;;26.79;26.48
73974;BME280;62336;-26.094;27.994;2022-12-07T14:22:24;84847.63;;;27.64;26.58
73974;BME280;62336;-26.094;27.994;2022-12-07T14:24:42;84840.19;;;27.18;26.04
73974;BME280;62336;-26.094;27.994;2022-12-07T14:27:17;84838.04;;;27.97;26.80
73974;BME280;62336;-26.094;27.994;2022-12-07T14:29:34;84833.97;;;27.21;27.92
73974;BME280;62336;-26.094;27.994;2022-12-07T14:34:25;84792.64;;;29.25;26.87
73974;BME280;62336;-26.094;27.994;2022-12-07T14:36:51;84763.21;;;29.64;26.68
73974;BME280;62336;-26.094;27.994;2022-12-07T14:39:17;84740.74;;;30.44;25.23
73974;BME280;62336;-26.094;27.994;2022-12-07T14:41:43;84738.30;;;29.91;23.66
73974;BME280;62336;-26.094;27.994;2022-12-07T14:44:10;84750.36;;;29.30;25.52
73974;BME280;62336;-26.094;27.994;2022-12-07T14:46:35;84753.43;;;29.71;24.36
73974;BME280;62336;-26.094;27.994;2022-12-07T14:49:00;84772.45;;;29.51;24.78
73974;BME280;62336;-26.094;27.994;2022-12-07T14:51:26;84777.16;;;30.25;23.59
73974;BME280;62336;-26.094;27.994;2022-12-07T14:53:52;84777.62;;;29.79;22.76
73974;BME280;62336;-26.094;27.994;2022-12-07T14:56:18;84800.31;;;29.50;23.50
73974;BME280;62336;-26.094;27.994;2022-12-07T14:58:44;84798.02;;;29.57;23.64
73974;BME280;62336;-26.094;27.994;2022-12-07T15:01:09;84791.80;;;29.63;23.56
73974;BME280;62336;-26.094;27.994;2022-12-07T15:03:35;84786.08;;;29.60;24.51
73974;BME280;62336;-26.094;27.994;2022-12-07T15:06:01;84780.84;;;29.72;24.70
73974;BME280;62336;-26.094;27.994;2022-12-07T15:08:27;84772.14;;;30.45;24.61
73974;BME280;62336;-26.094;27.994;2022-12-07T15:10:53;84758.16;;;31.51;23.05
73974;BME280;62336;-26.094;27.994;2022-12-07T15:13:19;84751.99;;;31.22;23.29
73974;BME280;62336;-26.094;27.994;2022-12-07T15:15:45;84752.57;;;31.03;22.42
73974;BME280;62336;-26.094;27.994;2022-12-07T15:18:10;84753.01;;;30.87;19.93
73974;BME280;62336;-26.094;27.994;2022-12-07T15:20:36;84761.99;;;30.48;21.03
73974;BME280;62336;-26.094;27.994;2022-12-07T15:23:02;84771.58;;;30.69;22.52
73974;BME280;62336;-26.094;27.994;2022-12-07T15:25:28;84785.20;;;30.35;23.12
73974;BME280;62336;-26.094;27.994;2022-12-07T15:27:53;84786.48;;;30.47;22.82
73974;BME280;62336;-26.094;27.994;2022-12-07T15:30:18;84789.34;;;30.17;23.21
73974;BME280;62336;-26.094;27.994;2022-12-07T15:32:43;84795.41;;;30.19;22.74
73974;BME280;62336;-26.094;27.994;2022-12-07T15:35:10;84792.91;;;30.22;23.40
73974;BME280;62336;-26.094;27.994;2022-12-07T15:37:35;84794.37;;;29.38;24.33
73974;BME280;62336;-26.094;27.994;2022-12-07T15:40:01;84791.36;;;29.34;24.32
73974;BME280;62336;-26.094;27.994;2022-12-07T15:42:26;84791.39;;;30.43;23.74
73974;BME280;62336;-26.094;27.994;2022-12-07T15:44:51;84798.26;;;31.80;23.55
73974;BME280;62336;-26.094;27.994;2022-12-07T15:47:17;84802.52;;;31.43;22.76
73974;BME280;62336;-26.094;27.994;2022-12-07T15:49:43;84809.36;;;30.75;23.73
73974;BME280;62336;-26.094;27.994;2022-12-07T15:52:08;84814.08;;;30.46;24.14
73974;BME280;62336;-26.094;27.994;2022-12-07T15:54:34;84813.26;;;30.17;24.22
73974;BME280;62336;-26.094;27.994;2022-12-07T15:57:00;84819.89;;;30.12;24.19
73974;BME280;62336;-26.094;27.994;2022-12-07T15:59:27;84819.88;;;29.94;24.56
73974;BME280;62336;-26.094;27.994;2022-12-07T16:01:51;84816.04;;;30.22;23.44
73974;BME280;62336;-26.094;27.994;2022-12-07T16:04:17;84819.04;;;29.97;23.69
73974;BME280;62336;-26.094;27.994;2022-12-07T16:06:43;84823.35;;;30.17;24.40
73974;BME280;62336;-26.094;27.994;2022-12-07T16:09:09;84821.75;;;29.94;24.48
73974;BME280;62336;-26.094;27.994;2022-12-07T16:11:35;84821.69;;;30.10;25.45
73974;BME280;62336;-26.094;27.994;2022-12-07T16:14:00;84835.60;;;31.03;24.61
73974;BME280;62336;-26.094;27.994;2022-12-07T16:16:26;84840.02;;;31.24;23.30
73974;BME280;62336;-26.094;27.994;2022-12-07T16:18:52;84830.37;;;31.09;23.62
73974;BME280;62336;-26.094;27.994;2022-12-07T16:21:18;84825.93;;;31.49;22.92
73974;BME280;62336;-26.094;27.994;2022-12-07T16:23:44;84825.68;;;31.18;21.52
73974;BME280;62336;-26.094;27.994;2022-12-07T16:26:11;84815.07;;;30.79;20.57
73974;BME280;62336;-26.094;27.994;2022-12-07T16:28:34;84812.27;;;30.77;22.02
73974;BME280;62336;-26.094;27.994;2022-12-07T16:31:02;84808.06;;;30.43;22.12
73974;BME280;62336;-26.094;27.994;2022-12-07T16:33:25;84806.72;;;30.08;22.92
73974;BME280;62336;-26.094;27.994;2022-12-07T16:35:51;84808.06;;;30.41;22.80
73974;BME280;62336;-26.094;27.994;2022-12-07T16:38:16;84808.91;;;30.24;22.55
73974;BME280;62336;-26.094;27.994;2022-12-07T16:40:41;84808.51;;;30.32;22.38
73974;BME280;62336;-26.094;27.994;2022-12-07T16:43:07;84807.83;;;30.39;24.03
73974;BME280;62336;-26.094;27.994;2022-12-07T16:45:33;84807.34;;;30.02;23.97
73974;BME280;62336;-26.094;27.994;2022-12-07T16:47:58;84808.59;;;30.86;23.16
73974;BME280;62336;-26.094;27.994;2022-12-07T16:49:28;84806.68;;;29.03;23.43
73974;BME280;62336;-26.094;27.994;2022-12-07T16:51:51;84803.09;;;30.97;22.94
73974;BME280;62336;-26.094;27.994;2022-12-07T16:54:22;84802.02;;;31.44;22.53
73974;BME280;62336;-26.094;27.994;2022-12-07T16:56:41;84805.45;;;31.75;22.23
73974;BME280;62336;-26.094;27.994;2022-12-07T16:59:06;84809.01;;;32.03;21.54
73974;BME280;62336;-26.094;27.994;2022-12-07T17:01:32;84810.60;;;31.83;21.41
73974;BME280;62336;-26.094;27.994;2022-12-07T17:04:04;84810.72;;;31.18;21.62
73974;BME280;62336;-26.094;27.994;2022-12-07T17:06:25;84813.73;;;31.14;21.54
73974;BME280;62336;-26.094;27.994;2022-12-07T17:08:50;84815.69;;;30.78;21.86
73974;BME280;62336;-26.094;27.994;2022-12-07T17:11:17;84814.87;;;31.19;22.02
73974;BME280;62336;-26.094;27.994;2022-12-07T17:13:41;84813.56;;;30.66;22.33
73974;BME280;62336;-26.094;27.994;2022-12-07T17:16:08;84818.60;;;31.33;21.85
73974;BME280;62336;-26.094;27.994;2022-12-07T17:18:35;84818.83;;;30.49;22.42
73974;BME280;62336;-26.094;27.994;2022-12-07T17:21:03;84820.57;;;30.21;23.51
73974;BME280;62336;-26.094;27.994;2022-12-07T17:23:24;84820.18;;;29.71;23.89
73974;BME280;62336;-26.094;27.994;2022-12-07T17:25:50;84822.92;;;30.38;22.32
73974;BME280;62336;-26.094;27.994;2022-12-07T17:28:16;84825.57;;;30.21;23.09
73974;BME280;62336;-26.094;27.994;2022-12-07T17:30:42;84826.54;;;30.55;22.88
73974;BME280;62336;-26.094;27.994;2022-12-07T17:33:08;84831.10;;;31.29;22.68
73974;BME280;62336;-26.094;27.994;2022-12-07T17:35:33;84835.48;;;31.77;21.60
73974;BME280;62336;-26.094;27.994;2022-12-07T17:37:58;84839.48;;;31.48;21.86
73974;BME280;62336;-26.094;27.994;2022-12-07T17:40:24;84837.61;;;30.97;21.85
73974;BME280;62336;-26.094;27.994;2022-12-07T17:42:49;84840.67;;;30.54;22.59
73974;BME280;62336;-26.094;27.994;2022-12-07T17:45:14;84848.25;;;29.69;24.60
73974;BME280;62336;-26.094;27.994;2022-12-07T17:47:39;84861.14;;;29.15;25.63
73974;BME280;62336;-26.094;27.994;2022-12-07T17:50:06;84883.48;;;29.59;23.95
73974;BME280;62336;-26.094;27.994;2022-12-07T17:52:30;84873.27;;;29.08;24.83
73974;BME280;62336;-26.094;27.994;2022-12-07T17:54:56;84866.94;;;29.51;24.26
73974;BME280;62336;-26.094;27.994;2022-12-07T17:57:21;84880.78;;;29.39;24.86
73974;BME280;62336;-26.094;27.994;2022-12-07T17:59:46;84893.77;;;29.00;25.19
73974;BME280;62336;-26.094;27.994;2022-12-07T18:02:11;84896.14;;;28.64;25.24
73974;BME280;62336;-26.094;27.994;2022-12-07T18:04:36;84896.59;;;28.82;26.00